Airfield :
LOGIN :

Register | Disclaimer

   EN    FR    IT 

 










Legend :    VFR   Marginal VFR   IFR   Intensive IFR   Very Intensive IFR
Visi :
Ceiling :
>= 8 km
>= 3000ft
5 to 8 km
1000 to 3000 ft
1500m to 5 km
500 to 1000 ft
800 to 1500m
200 to 500 ft
< 800m
< 200 ft
Symbols :   Thunderstorms  Fog  Heavy snow  Heavy precipitations  Wind > 20 kt
SIGMETs :     Misc.  Thunderstorms  Icing  Turbulence  Mountain Waves  Volcanic Ashes







- Airport Elevation : 82 ft
- IATA code : AAR


EKAH - Aarhus Tirstrup

CURRENT METAR :
  • 190020Z AUTO 22004KT 160V250 8000NDV FEW015/// FEW045/// BKN066/// 07/06 Q1009

EXPIRED METARs :
  • 182350Z AUTO 21004KT 160V250 7000NDV FEW016/// BKN074/// BKN210/// 06/05 Q1009
  • 182320Z AUTO 19004KT 150V240 7000NDV FEW100/// 06/05 Q1009
  • 182250Z AUTO 20004KT 160V230 7000NDV SCT100/// 07/06 Q1010
  • 182220Z AUTO 19005KT 160V230 6000NDV FEW084/// BKN096/// 07/06 Q1010
  • 182150Z AUTO 19004KT 150V230 6000NDV OVC092/// 07/06 Q1010

TAF TAF EKAH
Valid from the 19 at 00:00 until the 20 at 00:00 UTC


182307Z 1900/1924 22008KT 6000 BKN030
BECMG 1900/1903 4000 RADZ BR BKN008
BECMG 1903/1905 9999 NSW SCT020
TEMPO 1905/1914 26015G28KT SHRA BKN010 SCT020CB
TEMPO 1914/1922 27015G25KT -SHRA BKN012 SCT020TCU
No reported NOTAMs for that airfield.



MET'MAP, your aeronautical weather chart ! - Copyright ORBIFLY December 2007 - Disclaimer

ORBIFLY MET'MAP TEAM :

Programming & Development : Alexandra Zaïnal
Concept & Development : Baudouin d'Aumeries
Co-Development & Prog : Marc-Olivier Méhu
Technical & hardware support : Manuel Goepfert

Contact : metmap@orbifly.com




SOURCES & CREDITS :

   NOAA